Mildred, Pennsylvania
Current Conditions -  °F | °C
As of 12:54 AM on Saturday 20 Dec 2014 (Local Time) from KIPT Reporting Station
Overcast Overcast  
Wind Chill: 22°   Ceiling: 3100
Heat Index: 30°   Visibility: 10mi
Dew Point: 17°   Wind: 8mph
Humidity: 59%   Direction: 320°NW
Pressure: 30.22"   Gusts: NA
Location:  41.48°N, 76.38°W
Report Text: KIPT 200554Z AUTO 32007KT 10SM OVC031 M01/M08 A3022 RMK AO2 SLP237 T10111083 10006 21011 58002
Loading
Personal Weather Stations






























Interactive Weather Map New forecast layout! Learn more

10-Day Weather Forecast

Advertisements
Track Severe Weather on mobile